sensor_id;sensor_type;location;lat;lon;timestamp;P1;P2;P0
76049;PMS7003;64967;50.234;19.224;2023-06-24T14:14:01;6.50;5.50;4.00
76049;PMS7003;64967;50.234;19.224;2023-06-24T14:16:28;3.67;3.67;3.00
76049;PMS7003;64967;50.234;19.224;2023-06-24T14:18:55;5.33;4.67;4.00
76049;PMS7003;64967;50.234;19.224;2023-06-24T14:21:25;7.33;6.67;5.00
76049;PMS7003;64967;50.234;19.224;2023-06-24T14:24:18;6.00;5.33;4.00
76049;PMS7003;64967;50.234;19.224;2023-06-24T14:27:04;4.33;4.33;3.33
76049;PMS7003;64967;50.234;19.224;2023-06-24T14:29:53;5.33;5.33;4.33
76049;PMS7003;64967;50.234;19.224;2023-06-24T14:32:37;4.00;4.00;3.33
76049;PMS7003;64967;50.234;19.224;2023-06-24T14:35:10;4.67;4.00;3.00
76049;PMS7003;64967;50.234;19.224;2023-06-24T14:37:57;4.00;4.00;3.00
76049;PMS7003;64967;50.234;19.224;2023-06-24T14:40:43;3.67;3.33;3.00
76049;PMS7003;64967;50.234;19.224;2023-06-24T14:43:33;3.00;3.00;2.00
76049;PMS7003;64967;50.234;19.224;2023-06-24T14:46:28;4.00;4.00;3.33
76049;PMS7003;64967;50.234;19.224;2023-06-24T14:49:16;4.33;4.33;3.33
76049;PMS7003;64967;50.234;19.224;2023-06-24T14:52:02;3.00;3.00;2.00
76049;PMS7003;64967;50.234;19.224;2023-06-24T14:54:50;5.00;5.00;3.00
76049;PMS7003;64967;50.234;19.224;2023-06-24T14:57:37;3.00;3.00;3.00
76049;PMS7003;64967;50.234;19.224;2023-06-24T15:00:32;3.00;3.00;2.33
76049;PMS7003;64967;50.234;19.224;2023-06-24T15:03:17;4.00;3.67;3.00
76049;PMS7003;64967;50.234;19.224;2023-06-24T15:06:03;5.00;5.00;4.00
76049;PMS7003;64967;50.234;19.224;2023-06-24T15:08:51;3.00;3.00;2.00
76049;PMS7003;64967;50.234;19.224;2023-06-24T15:11:37;4.00;4.00;3.00
76049;PMS7003;64967;50.234;19.224;2023-06-24T15:14:24;4.67;3.33;3.00
76049;PMS7003;64967;50.234;19.224;2023-06-24T15:17:06;5.33;5.00;4.00
76049;PMS7003;64967;50.234;19.224;2023-06-24T15:19:52;4.67;4.67;3.33
76049;PMS7003;64967;50.234;19.224;2023-06-24T15:22:38;5.33;5.00;4.00
76049;PMS7003;64967;50.234;19.224;2023-06-24T15:25:25;4.00;4.00;3.00
76049;PMS7003;64967;50.234;19.224;2023-06-24T15:28:12;4.00;4.00;4.00
76049;PMS7003;64967;50.234;19.224;2023-06-24T15:30:55;6.00;6.00;5.00
76049;PMS7003;64967;50.234;19.224;2023-06-24T15:33:22;6.67;6.00;4.00
76049;PMS7003;64967;50.234;19.224;2023-06-24T15:35:49;5.00;5.00;4.00
76049;PMS7003;64967;50.234;19.224;2023-06-24T15:38:16;6.00;6.00;5.00
76049;PMS7003;64967;50.234;19.224;2023-06-24T15:40:43;5.33;4.00;4.00
76049;PMS7003;64967;50.234;19.224;2023-06-24T15:43:10;4.00;4.00;4.00
76049;PMS7003;64967;50.234;19.224;2023-06-24T15:45:38;6.00;5.00;3.00
76049;PMS7003;64967;50.234;19.224;2023-06-24T15:48:04;5.00;5.00;4.00
76049;PMS7003;64967;50.234;19.224;2023-06-24T15:50:31;2.67;2.67;2.00
76049;PMS7003;64967;50.234;19.224;2023-06-24T15:52:59;6.00;5.00;4.00
76049;PMS7003;64967;50.234;19.224;2023-06-24T15:55:26;4.67;4.67;4.00
76049;PMS7003;64967;50.234;19.224;2023-06-24T15:57:52;3.67;3.67;3.00
76049;PMS7003;64967;50.234;19.224;2023-06-24T16:00:19;4.00;3.67;3.00
76049;PMS7003;64967;50.234;19.224;2023-06-24T16:02:46;4.00;4.00;3.00
76049;PMS7003;64967;50.234;19.224;2023-06-24T16:05:13;4.33;3.00;3.00
76049;PMS7003;64967;50.234;19.224;2023-06-24T16:07:40;5.00;5.00;3.00
76049;PMS7003;64967;50.234;19.224;2023-06-24T16:10:07;3.00;3.00;3.00
76049;PMS7003;64967;50.234;19.224;2023-06-24T16:12:34;5.00;5.00;4.00
76049;PMS7003;64967;50.234;19.224;2023-06-24T16:15:01;4.00;3.00;3.00
76049;PMS7003;64967;50.234;19.224;2023-06-24T16:17:29;3.33;3.00;2.33
76049;PMS7003;64967;50.234;19.224;2023-06-24T16:19:56;2.00;2.00;2.00
76049;PMS7003;64967;50.234;19.224;2023-06-24T16:22:23;3.00;2.00;2.00
76049;PMS7003;64967;50.234;19.224;2023-06-24T16:24:50;4.00;4.00;4.00
76049;PMS7003;64967;50.234;19.224;2023-06-24T16:27:16;5.00;4.67;4.00
76049;PMS7003;64967;50.234;19.224;2023-06-24T16:29:43;4.00;4.00;3.00
76049;PMS7003;64967;50.234;19.224;2023-06-24T16:32:10;3.00;3.00;3.00
76049;PMS7003;64967;50.234;19.224;2023-06-24T16:34:37;3.00;3.00;2.67
76049;PMS7003;64967;50.234;19.224;2023-06-24T16:37:04;4.33;4.33;3.67
76049;PMS7003;64967;50.234;19.224;2023-06-24T16:39:30;2.33;2.33;2.00
76049;PMS7003;64967;50.234;19.224;2023-06-24T16:41:57;2.00;2.00;2.00
76049;PMS7003;64967;50.234;19.224;2023-06-24T16:44:24;3.33;2.00;2.00
76049;PMS7003;64967;50.234;19.224;2023-06-24T16:46:53;3.00;3.00;2.00
76049;PMS7003;64967;50.234;19.224;2023-06-24T16:49:19;2.00;2.00;1.00
76049;PMS7003;64967;50.234;19.224;2023-06-24T16:51:46;0.67;0.67;0.00
76049;PMS7003;64967;50.234;19.224;2023-06-24T16:54:13;0.00;0.00;0.00
76049;PMS7003;64967;50.234;19.224;2023-06-24T16:56:40;2.00;1.00;1.00
76049;PMS7003;64967;50.234;19.224;2023-06-24T16:59:07;0.67;0.67;0.67
76049;PMS7003;64967;50.234;19.224;2023-06-24T17:01:34;1.00;1.00;1.00
76049;PMS7003;64967;50.234;19.224;2023-06-24T17:04:01;2.00;1.00;1.00
76049;PMS7003;64967;50.234;19.224;2023-06-24T17:06:28;2.00;2.00;1.00
76049;PMS7003;64967;50.234;19.224;2023-06-24T17:08:54;3.00;1.33;1.00
76049;PMS7003;64967;50.234;19.224;2023-06-24T17:11:23;0.00;0.00;0.00
76049;PMS7003;64967;50.234;19.224;2023-06-24T17:13:50;1.00;1.00;1.00
76049;PMS7003;64967;50.234;19.224;2023-06-24T17:16:17;0.00;0.00;0.00
76049;PMS7003;64967;50.234;19.224;2023-06-24T17:18:44;1.00;1.00;0.00
76049;PMS7003;64967;50.234;19.224;2023-06-24T17:24:05;0.00;0.00;0.00
76049;PMS7003;64967;50.234;19.224;2023-06-24T17:26:32;1.33;1.33;1.00
76049;PMS7003;64967;50.234;19.224;2023-06-24T17:28:59;1.00;1.00;1.00
76049;PMS7003;64967;50.234;19.224;2023-06-24T17:31:26;1.00;1.00;1.00
76049;PMS7003;64967;50.234;19.224;2023-06-24T17:33:54;1.00;1.00;1.00
76049;PMS7003;64967;50.234;19.224;2023-06-24T17:36:24;2.33;2.33;2.00
76049;PMS7003;64967;50.234;19.224;2023-06-24T17:38:51;2.33;2.33;2.00
76049;PMS7003;64967;50.234;19.224;2023-06-24T17:41:18;2.00;2.00;1.33
76049;PMS7003;64967;50.234;19.224;2023-06-24T17:43:45;1.00;1.00;1.00
76049;PMS7003;64967;50.234;19.224;2023-06-24T17:46:12;2.00;2.00;2.00
76049;PMS7003;64967;50.234;19.224;2023-06-24T17:48:39;3.00;2.00;1.67
76049;PMS7003;64967;50.234;19.224;2023-06-24T17:51:06;2.00;2.00;2.00
76049;PMS7003;64967;50.234;19.224;2023-06-24T17:53:33;2.00;2.00;2.00
76049;PMS7003;64967;50.234;19.224;2023-06-24T17:56:00;1.00;1.00;1.00
76049;PMS7003;64967;50.234;19.224;2023-06-24T17:58:27;1.67;1.67;1.00
76049;PMS7003;64967;50.234;19.224;2023-06-24T18:00:54;1.00;1.00;1.00
76049;PMS7003;64967;50.234;19.224;2023-06-24T18:03:20;0.00;0.00;0.00
76049;PMS7003;64967;50.234;19.224;2023-06-24T18:05:50;1.00;1.00;1.00
76049;PMS7003;64967;50.234;19.224;2023-06-24T18:08:17;1.00;1.00;1.00
76049;PMS7003;64967;50.234;19.224;2023-06-24T18:10:44;0.67;0.67;0.00
76049;PMS7003;64967;50.234;19.224;2023-06-24T18:13:10;0.67;0.67;0.67
76049;PMS7003;64967;50.234;19.224;2023-06-24T18:15:37;1.00;1.00;1.00
76049;PMS7003;64967;50.234;19.224;2023-06-24T18:18:04;1.00;1.00;1.00
76049;PMS7003;64967;50.234;19.224;2023-06-24T18:20:31;2.00;2.00;1.00
76049;PMS7003;64967;50.234;19.224;2023-06-24T18:22:58;1.67;1.67;1.00
76049;PMS7003;64967;50.234;19.224;2023-06-24T18:25:25;3.00;3.00;2.00
76049;PMS7003;64967;50.234;19.224;2023-06-24T18:27:52;4.00;4.00;3.00
76049;PMS7003;64967;50.234;19.224;2023-06-24T18:30:19;2.00;2.00;1.67
76049;PMS7003;64967;50.234;19.224;2023-06-24T18:32:46;5.00;3.00;2.00
76049;PMS7003;64967;50.234;19.224;2023-06-24T18:35:13;2.00;2.00;2.00
76049;PMS7003;64967;50.234;19.224;2023-06-24T18:37:40;2.00;2.00;1.67
76049;PMS7003;64967;50.234;19.224;2023-06-24T18:40:07;1.00;1.00;1.00
76049;PMS7003;64967;50.234;19.224;2023-06-24T18:42:34;3.00;2.00;1.67
76049;PMS7003;64967;50.234;19.224;2023-06-24T18:45:01;1.00;1.00;1.00
76049;PMS7003;64967;50.234;19.224;2023-06-24T18:47:28;2.00;2.00;1.00
76049;PMS7003;64967;50.234;19.224;2023-06-24T18:49:55;1.33;1.33;1.00
76049;PMS7003;64967;50.234;19.224;2023-06-24T18:52:22;3.00;3.00;2.00
76049;PMS7003;64967;50.234;19.224;2023-06-24T18:54:48;3.00;3.00;3.00
76049;PMS7003;64967;50.234;19.224;2023-06-24T18:57:15;1.00;1.00;1.00
76049;PMS7003;64967;50.234;19.224;2023-06-24T18:59:43;2.67;2.67;2.00
76049;PMS7003;64967;50.234;19.224;2023-06-24T19:02:10;2.33;2.00;2.00
76049;PMS7003;64967;50.234;19.224;2023-06-24T19:04:37;2.67;2.00;2.00
76049;PMS7003;64967;50.234;19.224;2023-06-24T19:07:04;2.33;2.00;2.00
76049;PMS7003;64967;50.234;19.224;2023-06-24T19:09:31;2.00;2.00;2.00
76049;PMS7003;64967;50.234;19.224;2023-06-24T19:11:59;2.00;1.67;1.00
76049;PMS7003;64967;50.234;19.224;2023-06-24T19:14:27;2.00;2.00;1.33
76049;PMS7003;64967;50.234;19.224;2023-06-24T19:16:55;2.00;1.33;1.33
76049;PMS7003;64967;50.234;19.224;2023-06-24T19:19:22;2.67;2.67;2.00
76049;PMS7003;64967;50.234;19.224;2023-06-24T19:21:49;1.67;1.00;1.00
76049;PMS7003;64967;50.234;19.224;2023-06-24T19:24:16;1.00;1.00;1.00
76049;PMS7003;64967;50.234;19.224;2023-06-24T19:26:43;2.33;2.33;2.00
76049;PMS7003;64967;50.234;19.224;2023-06-24T19:29:10;1.00;1.00;1.00
76049;PMS7003;64967;50.234;19.224;2023-06-24T19:31:37;2.00;2.00;1.33
76049;PMS7003;64967;50.234;19.224;2023-06-24T19:34:04;3.00;3.00;2.33
76049;PMS7003;64967;50.234;19.224;2023-06-24T19:36:31;1.33;1.33;1.33
76049;PMS7003;64967;50.234;19.224;2023-06-24T19:41:54;1.00;1.00;1.00
76049;PMS7003;64967;50.234;19.224;2023-06-24T19:44:21;1.33;1.00;1.00
76049;PMS7003;64967;50.234;19.224;2023-06-24T19:46:48;1.00;1.00;1.00
76049;PMS7003;64967;50.234;19.224;2023-06-24T19:49:15;1.00;1.00;1.00
76049;PMS7003;64967;50.234;19.224;2023-06-24T19:51:42;1.67;1.00;1.00
76049;PMS7003;64967;50.234;19.224;2023-06-24T19:54:10;1.00;1.00;1.00
76049;PMS7003;64967;50.234;19.224;2023-06-24T19:56:37;1.33;1.00;1.00
76049;PMS7003;64967;50.234;19.224;2023-06-24T19:59:04;2.00;2.00;1.00
76049;PMS7003;64967;50.234;19.224;2023-06-24T20:01:31;3.00;2.33;2.00
76049;PMS7003;64967;50.234;19.224;2023-06-24T20:03:58;1.00;1.00;1.00
76049;PMS7003;64967;50.234;19.224;2023-06-24T20:06:26;2.00;2.00;1.33
76049;PMS7003;64967;50.234;19.224;2023-06-24T20:08:53;3.00;3.00;2.00
76049;PMS7003;64967;50.234;19.224;2023-06-24T20:11:20;1.67;1.67;1.33
76049;PMS7003;64967;50.234;19.224;2023-06-24T20:13:47;3.00;2.33;2.00
76049;PMS7003;64967;50.234;19.224;2023-06-24T20:16:14;1.00;1.00;1.00
76049;PMS7003;64967;50.234;19.224;2023-06-24T20:18:42;2.00;2.00;1.00
76049;PMS7003;64967;50.234;19.224;2023-06-24T20:21:08;1.67;1.00;1.00
76049;PMS7003;64967;50.234;19.224;2023-06-24T20:23:40;2.00;2.00;1.00
76049;PMS7003;64967;50.234;19.224;2023-06-24T20:26:07;2.67;2.67;2.00
76049;PMS7003;64967;50.234;19.224;2023-06-24T20:28:34;1.00;1.00;0.67
76049;PMS7003;64967;50.234;19.224;2023-06-24T20:31:01;2.67;2.00;2.00
76049;PMS7003;64967;50.234;19.224;2023-06-24T20:33:29;2.00;2.00;2.00
76049;PMS7003;64967;50.234;19.224;2023-06-24T20:35:57;2.00;2.00;1.00
76049;PMS7003;64967;50.234;19.224;2023-06-24T20:38:25;2.00;2.00;2.00
76049;PMS7003;64967;50.234;19.224;2023-06-24T20:40:52;2.25;2.25;2.00
76049;PMS7003;64967;50.234;19.224;2023-06-24T20:43:21;2.00;2.00;2.00
76049;PMS7003;64967;50.234;19.224;2023-06-24T20:45:52;4.00;4.00;3.75
76049;PMS7003;64967;50.234;19.224;2023-06-24T20:48:24;4.75;3.75;3.00
76049;PMS7003;64967;50.234;19.224;2023-06-24T20:50:51;3.25;3.25;3.00
76049;PMS7003;64967;50.234;19.224;2023-06-24T20:53:17;4.00;3.00;2.75
76049;PMS7003;64967;50.234;19.224;2023-06-24T20:55:44;6.00;5.00;4.00
76049;PMS7003;64967;50.234;19.224;2023-06-24T20:58:11;3.50;3.00;2.50
76049;PMS7003;64967;50.234;19.224;2023-06-24T21:00:38;5.00;5.00;4.00
76049;PMS7003;64967;50.234;19.224;2023-06-24T21:03:05;3.25;2.00;1.00
76049;PMS7003;64967;50.234;19.224;2023-06-24T21:05:33;3.00;2.75;2.00
76049;PMS7003;64967;50.234;19.224;2023-06-24T21:08:00;2.50;2.50;2.00
76049;PMS7003;64967;50.234;19.224;2023-06-24T21:10:27;4.25;4.00;3.00
76049;PMS7003;64967;50.234;19.224;2023-06-24T21:12:54;4.00;3.50;3.00
76049;PMS7003;64967;50.234;19.224;2023-06-24T21:15:24;3.25;2.50;2.50
76049;PMS7003;64967;50.234;19.224;2023-06-24T21:17:51;3.00;3.00;2.75
76049;PMS7003;64967;50.234;19.224;2023-06-24T21:20:18;4.00;3.00;2.25
76049;PMS7003;64967;50.234;19.224;2023-06-24T21:22:45;4.50;4.00;4.00
76049;PMS7003;64967;50.234;19.224;2023-06-24T21:25:12;4.25;4.25;3.25
76049;PMS7003;64967;50.234;19.224;2023-06-24T21:27:39;5.25;5.25;4.75
76049;PMS7003;64967;50.234;19.224;2023-06-24T21:30:06;5.00;4.50;3.50
76049;PMS7003;64967;50.234;19.224;2023-06-24T21:32:33;2.00;2.00;1.75
76049;PMS7003;64967;50.234;19.224;2023-06-24T21:35:01;3.00;3.00;2.75
76049;PMS7003;64967;50.234;19.224;2023-06-24T21:37:28;4.75;4.25;3.00
76049;PMS7003;64967;50.234;19.224;2023-06-24T21:39:54;5.00;3.50;2.25
76049;PMS7003;64967;50.234;19.224;2023-06-24T21:42:22;4.50;4.00;3.50
76049;PMS7003;64967;50.234;19.224;2023-06-24T21:44:48;4.00;3.00;3.00
76049;PMS7003;64967;50.234;19.224;2023-06-24T21:47:15;4.25;3.25;3.00
76049;PMS7003;64967;50.234;19.224;2023-06-24T21:49:42;3.75;3.75;3.00
76049;PMS7003;64967;50.234;19.224;2023-06-24T21:52:10;3.50;3.50;3.00
76049;PMS7003;64967;50.234;19.224;2023-06-24T21:54:36;3.50;3.50;3.00
76049;PMS7003;64967;50.234;19.224;2023-06-24T21:57:04;7.00;6.00;4.00
76049;PMS7003;64967;50.234;19.224;2023-06-24T21:59:31;6.00;4.75;3.75
76049;PMS7003;64967;50.234;19.224;2023-06-24T22:02:00;4.00;3.00;3.00
76049;PMS7003;64967;50.234;19.224;2023-06-24T22:04:28;2.75;2.25;2.00
76049;PMS7003;64967;50.234;19.224;2023-06-24T22:06:55;2.00;2.00;1.50
76049;PMS7003;64967;50.234;19.224;2023-06-24T22:09:21;3.25;3.25;3.00
76049;PMS7003;64967;50.234;19.224;2023-06-24T22:11:48;3.00;3.00;3.00
76049;PMS7003;64967;50.234;19.224;2023-06-24T22:14:15;5.75;3.25;3.00
76049;PMS7003;64967;50.234;19.224;2023-06-24T22:16:43;5.00;4.00;4.00
76049;PMS7003;64967;50.234;19.224;2023-06-24T22:19:10;5.00;4.00;2.50
76049;PMS7003;64967;50.234;19.224;2023-06-24T22:21:37;4.00;4.00;3.50
76049;PMS7003;64967;50.234;19.224;2023-06-24T22:24:04;4.25;3.00;3.00
76049;PMS7003;64967;50.234;19.224;2023-06-24T22:26:32;5.50;4.00;4.00
76049;PMS7003;64967;50.234;19.224;2023-06-24T22:28:58;5.50;5.50;4.50
76049;PMS7003;64967;50.234;19.224;2023-06-24T22:31:25;5.00;4.50;4.00
76049;PMS7003;64967;50.234;19.224;2023-06-24T22:33:52;3.75;3.75;3.00
76049;PMS7003;64967;50.234;19.224;2023-06-24T22:36:19;5.00;5.00;4.50
76049;PMS7003;64967;50.234;19.224;2023-06-24T22:38:46;4.00;4.00;4.00
76049;PMS7003;64967;50.234;19.224;2023-06-24T22:41:13;4.25;4.25;3.00
76049;PMS7003;64967;50.234;19.224;2023-06-24T22:46:32;2.50;2.00;2.00
76049;PMS7003;64967;50.234;19.224;2023-06-24T22:48:59;2.50;2.50;2.00
76049;PMS7003;64967;50.234;19.224;2023-06-24T22:51:26;2.75;2.75;2.00
76049;PMS7003;64967;50.234;19.224;2023-06-24T22:53:53;3.50;3.00;2.50
76049;PMS7003;64967;50.234;19.224;2023-06-24T22:56:20;3.50;3.50;3.25
76049;PMS7003;64967;50.234;19.224;2023-06-24T22:58:47;3.50;3.50;3.00
76049;PMS7003;64967;50.234;19.224;2023-06-24T23:01:14;4.00;4.00;3.00
76049;PMS7003;64967;50.234;19.224;2023-06-24T23:03:41;3.25;3.25;3.00
76049;PMS7003;64967;50.234;19.224;2023-06-24T23:06:08;3.00;3.00;3.00
76049;PMS7003;64967;50.234;19.224;2023-06-24T23:08:36;2.50;2.50;2.00
76049;PMS7003;64967;50.234;19.224;2023-06-24T23:11:03;4.00;4.00;3.00
76049;PMS7003;64967;50.234;19.224;2023-06-24T23:13:31;2.75;2.75;2.00
76049;PMS7003;64967;50.234;19.224;2023-06-24T23:16:01;4.00;3.50;3.00
76049;PMS7003;64967;50.234;19.224;2023-06-24T23:18:29;2.50;2.50;2.00
76049;PMS7003;64967;50.234;19.224;2023-06-24T23:20:56;3.75;3.00;2.25
76049;PMS7003;64967;50.234;19.224;2023-06-24T23:23:24;2.25;2.25;2.00
76049;PMS7003;64967;50.234;19.224;2023-06-24T23:25:52;2.00;2.00;2.00
76049;PMS7003;64967;50.234;19.224;2023-06-24T23:28:20;2.50;2.50;2.00
76049;PMS7003;64967;50.234;19.224;2023-06-24T23:30:48;2.00;2.00;2.00
76049;PMS7003;64967;50.234;19.224;2023-06-24T23:33:16;4.25;2.75;2.00
76049;PMS7003;64967;50.234;19.224;2023-06-24T23:35:46;3.75;3.25;2.75
76049;PMS7003;64967;50.234;19.224;2023-06-24T23:38:16;3.75;3.00;3.00
76049;PMS7003;64967;50.234;19.224;2023-06-24T23:40:44;2.50;2.50;2.00
76049;PMS7003;64967;50.234;19.224;2023-06-24T23:43:12;3.00;3.00;3.00
76049;PMS7003;64967;50.234;19.224;2023-06-24T23:45:46;4.00;4.00;3.75
76049;PMS7003;64967;50.234;19.224;2023-06-24T23:48:15;4.75;4.75;4.50
76049;PMS7003;64967;50.234;19.224;2023-06-24T23:50:42;4.25;4.00;3.00
76049;PMS7003;64967;50.234;19.224;2023-06-24T23:53:09;6.50;6.00;5.00
76049;PMS7003;64967;50.234;19.224;2023-06-24T23:55:37;3.75;3.00;3.00
76049;PMS7003;64967;50.234;19.224;2023-06-24T23:58:04;6.25;5.50;4.00
